sensor_id;sensor_type;location;lat;lon;timestamp;P1;durP1;ratioP1;P2;durP2;ratioP2
82387;SDS011;72027;47.420;9.310;2023-09-08T00:01:01;10.60;;;9.60;;
82387;SDS011;72027;47.420;9.310;2023-09-08T00:03:29;9.32;;;8.05;;
82387;SDS011;72027;47.420;9.310;2023-09-08T00:05:58;13.32;;;9.18;;
82387;SDS011;72027;47.420;9.310;2023-09-08T00:08:26;12.32;;;9.38;;
82387;SDS011;72027;47.420;9.310;2023-09-08T00:10:53;11.65;;;9.48;;
82387;SDS011;72027;47.420;9.310;2023-09-08T00:13:21;10.80;;;9.30;;
82387;SDS011;72027;47.420;9.310;2023-09-08T00:15:49;12.38;;;10.02;;
82387;SDS011;72027;47.420;9.310;2023-09-08T00:18:17;11.30;;;10.07;;
82387;SDS011;72027;47.420;9.310;2023-09-08T00:20:44;12.88;;;10.48;;
82387;SDS011;72027;47.420;9.310;2023-09-08T00:23:13;17.20;;;10.57;;
82387;SDS011;72027;47.420;9.310;2023-09-08T00:25:41;11.68;;;9.57;;
82387;SDS011;72027;47.420;9.310;2023-09-08T00:28:09;18.00;;;10.65;;
82387;SDS011;72027;47.420;9.310;2023-09-08T00:30:36;13.95;;;10.25;;
82387;SDS011;72027;47.420;9.310;2023-09-08T00:33:04;15.73;;;12.13;;
82387;SDS011;72027;47.420;9.310;2023-09-08T00:35:35;21.45;;;12.38;;
82387;SDS011;72027;47.420;9.310;2023-09-08T00:38:02;17.55;;;12.48;;
82387;SDS011;72027;47.420;9.310;2023-09-08T00:40:32;16.83;;;13.75;;
82387;SDS011;72027;47.420;9.310;2023-09-08T00:43:00;21.35;;;15.52;;
82387;SDS011;72027;47.420;9.310;2023-09-08T00:45:27;15.73;;;12.27;;
82387;SDS011;72027;47.420;9.310;2023-09-08T00:47:57;14.07;;;11.75;;
82387;SDS011;72027;47.420;9.310;2023-09-08T00:50:25;15.15;;;11.80;;
82387;SDS011;72027;47.420;9.310;2023-09-08T00:52:53;14.63;;;11.00;;
82387;SDS011;72027;47.420;9.310;2023-09-08T00:55:21;11.85;;;10.60;;
82387;SDS011;72027;47.420;9.310;2023-09-08T00:57:50;16.70;;;13.00;;
82387;SDS011;72027;47.420;9.310;2023-09-08T01:00:18;15.27;;;11.20;;
82387;SDS011;72027;47.420;9.310;2023-09-08T01:02:46;13.05;;;10.23;;
82387;SDS011;72027;47.420;9.310;2023-09-08T01:05:14;10.85;;;9.55;;
82387;SDS011;72027;47.420;9.310;2023-09-08T01:07:42;10.88;;;9.73;;
82387;SDS011;72027;47.420;9.310;2023-09-08T01:10:12;13.50;;;10.98;;
82387;SDS011;72027;47.420;9.310;2023-09-08T01:12:41;11.15;;;9.02;;
82387;SDS011;72027;47.420;9.310;2023-09-08T01:15:10;11.18;;;9.52;;
82387;SDS011;72027;47.420;9.310;2023-09-08T01:17:38;12.10;;;9.38;;
82387;SDS011;72027;47.420;9.310;2023-09-08T01:20:09;9.82;;;8.80;;
82387;SDS011;72027;47.420;9.310;2023-09-08T01:25:32;11.00;;;9.70;;
82387;SDS011;72027;47.420;9.310;2023-09-08T01:28:06;11.35;;;9.13;;
82387;SDS011;72027;47.420;9.310;2023-09-08T01:30:34;10.52;;;9.35;;
82387;SDS011;72027;47.420;9.310;2023-09-08T01:33:03;12.25;;;9.52;;
82387;SDS011;72027;47.420;9.310;2023-09-08T01:35:32;12.50;;;9.98;;
82387;SDS011;72027;47.420;9.310;2023-09-08T01:38:00;13.75;;;9.50;;
82387;SDS011;72027;47.420;9.310;2023-09-08T01:40:27;11.65;;;10.40;;
82387;SDS011;72027;47.420;9.310;2023-09-08T01:42:57;11.85;;;10.65;;
82387;SDS011;72027;47.420;9.310;2023-09-08T01:45:24;18.45;;;10.75;;
82387;SDS011;72027;47.420;9.310;2023-09-08T01:47:52;13.77;;;10.88;;
82387;SDS011;72027;47.420;9.310;2023-09-08T01:50:20;14.43;;;10.68;;
82387;SDS011;72027;47.420;9.310;2023-09-08T01:52:50;12.40;;;10.00;;
82387;SDS011;72027;47.420;9.310;2023-09-08T01:55:18;11.35;;;9.32;;
82387;SDS011;72027;47.420;9.310;2023-09-08T01:57:46;12.10;;;10.25;;
82387;SDS011;72027;47.420;9.310;2023-09-08T02:00:17;14.52;;;10.68;;
82387;SDS011;72027;47.420;9.310;2023-09-08T02:02:45;11.20;;;9.45;;
82387;SDS011;72027;47.420;9.310;2023-09-08T02:05:13;14.32;;;11.40;;
82387;SDS011;72027;47.420;9.310;2023-09-08T02:07:41;13.68;;;10.32;;
82387;SDS011;72027;47.420;9.310;2023-09-08T02:10:09;11.63;;;9.93;;
82387;SDS011;72027;47.420;9.310;2023-09-08T02:12:38;13.20;;;10.93;;
82387;SDS011;72027;47.420;9.310;2023-09-08T02:15:06;11.93;;;10.73;;
82387;SDS011;72027;47.420;9.310;2023-09-08T02:17:36;11.05;;;9.50;;
82387;SDS011;72027;47.420;9.310;2023-09-08T02:20:05;13.90;;;11.23;;
82387;SDS011;72027;47.420;9.310;2023-09-08T02:22:33;11.60;;;10.02;;
82387;SDS011;72027;47.420;9.310;2023-09-08T02:25:01;11.75;;;10.13;;
82387;SDS011;72027;47.420;9.310;2023-09-08T02:27:29;11.05;;;9.90;;
82387;SDS011;72027;47.420;9.310;2023-09-08T02:29:57;14.98;;;11.25;;
82387;SDS011;72027;47.420;9.310;2023-09-08T02:32:27;14.52;;;11.60;;
82387;SDS011;72027;47.420;9.310;2023-09-08T02:34:56;12.23;;;10.82;;
82387;SDS011;72027;47.420;9.310;2023-09-08T02:37:24;20.60;;;13.70;;
82387;SDS011;72027;47.420;9.310;2023-09-08T02:39:52;23.02;;;15.35;;
82387;SDS011;72027;47.420;9.310;2023-09-08T02:42:20;17.25;;;14.75;;
82387;SDS011;72027;47.420;9.310;2023-09-08T02:44:48;17.75;;;14.27;;
82387;SDS011;72027;47.420;9.310;2023-09-08T02:47:15;14.93;;;11.57;;
82387;SDS011;72027;47.420;9.310;2023-09-08T02:49:43;12.32;;;10.95;;
82387;SDS011;72027;47.420;9.310;2023-09-08T02:52:12;16.60;;;12.35;;
82387;SDS011;72027;47.420;9.310;2023-09-08T02:54:40;18.92;;;13.10;;
82387;SDS011;72027;47.420;9.310;2023-09-08T02:57:08;26.45;;;14.90;;
82387;SDS011;72027;47.420;9.310;2023-09-08T02:59:35;21.80;;;15.25;;
82387;SDS011;72027;47.420;9.310;2023-09-08T03:02:04;19.60;;;15.15;;
82387;SDS011;72027;47.420;9.310;2023-09-08T03:04:32;18.42;;;13.70;;
82387;SDS011;72027;47.420;9.310;2023-09-08T03:07:00;14.57;;;10.65;;
82387;SDS011;72027;47.420;9.310;2023-09-08T03:09:29;13.65;;;12.07;;
82387;SDS011;72027;47.420;9.310;2023-09-08T03:11:57;11.55;;;10.40;;
82387;SDS011;72027;47.420;9.310;2023-09-08T03:14:25;15.10;;;13.13;;
82387;SDS011;72027;47.420;9.310;2023-09-08T03:16:54;17.50;;;14.70;;
82387;SDS011;72027;47.420;9.310;2023-09-08T03:19:22;15.88;;;13.57;;
82387;SDS011;72027;47.420;9.310;2023-09-08T03:21:49;13.27;;;11.93;;
82387;SDS011;72027;47.420;9.310;2023-09-08T03:24:17;14.65;;;11.68;;
82387;SDS011;72027;47.420;9.310;2023-09-08T03:26:46;16.27;;;11.05;;
82387;SDS011;72027;47.420;9.310;2023-09-08T03:29:14;11.82;;;10.63;;
82387;SDS011;72027;47.420;9.310;2023-09-08T03:31:41;12.13;;;10.23;;
82387;SDS011;72027;47.420;9.310;2023-09-08T03:34:09;14.75;;;10.90;;
82387;SDS011;72027;47.420;9.310;2023-09-08T03:36:37;11.65;;;10.45;;
82387;SDS011;72027;47.420;9.310;2023-09-08T03:39:05;13.80;;;11.05;;
82387;SDS011;72027;47.420;9.310;2023-09-08T03:41:36;14.05;;;11.65;;
82387;SDS011;72027;47.420;9.310;2023-09-08T03:44:06;11.15;;;9.95;;
82387;SDS011;72027;47.420;9.310;2023-09-08T03:46:33;12.65;;;11.10;;
82387;SDS011;72027;47.420;9.310;2023-09-08T03:49:01;11.60;;;10.40;;
82387;SDS011;72027;47.420;9.310;2023-09-08T03:51:29;11.10;;;9.27;;
82387;SDS011;72027;47.420;9.310;2023-09-08T03:53:57;12.50;;;11.20;;
82387;SDS011;72027;47.420;9.310;2023-09-08T03:56:24;11.90;;;10.30;;
82387;SDS011;72027;47.420;9.310;2023-09-08T03:58:52;11.27;;;10.15;;
82387;SDS011;72027;47.420;9.310;2023-09-08T04:01:22;15.25;;;11.40;;
82387;SDS011;72027;47.420;9.310;2023-09-08T04:03:50;14.20;;;11.77;;
82387;SDS011;72027;47.420;9.310;2023-09-08T04:06:17;15.90;;;12.15;;
82387;SDS011;72027;47.420;9.310;2023-09-08T04:08:46;12.25;;;10.98;;
82387;SDS011;72027;47.420;9.310;2023-09-08T04:11:13;11.93;;;10.55;;
82387;SDS011;72027;47.420;9.310;2023-09-08T04:13:41;10.98;;;9.88;;
82387;SDS011;72027;47.420;9.310;2023-09-08T04:16:09;12.10;;;10.35;;
82387;SDS011;72027;47.420;9.310;2023-09-08T04:18:38;12.13;;;10.20;;
82387;SDS011;72027;47.420;9.310;2023-09-08T04:21:06;13.45;;;11.48;;
82387;SDS011;72027;47.420;9.310;2023-09-08T04:23:34;15.25;;;12.63;;
82387;SDS011;72027;47.420;9.310;2023-09-08T04:26:02;12.68;;;11.18;;
82387;SDS011;72027;47.420;9.310;2023-09-08T04:28:31;13.30;;;11.32;;
82387;SDS011;72027;47.420;9.310;2023-09-08T04:30:58;13.05;;;10.85;;
82387;SDS011;72027;47.420;9.310;2023-09-08T04:33:26;17.27;;;12.57;;
82387;SDS011;72027;47.420;9.310;2023-09-08T04:35:56;15.73;;;12.98;;
82387;SDS011;72027;47.420;9.310;2023-09-08T04:38:24;19.02;;;14.02;;
82387;SDS011;72027;47.420;9.310;2023-09-08T04:40:52;22.52;;;15.30;;
82387;SDS011;72027;47.420;9.310;2023-09-08T04:43:20;16.75;;;13.32;;
82387;SDS011;72027;47.420;9.310;2023-09-08T04:45:48;12.70;;;11.38;;
82387;SDS011;72027;47.420;9.310;2023-09-08T04:48:17;12.32;;;11.02;;
82387;SDS011;72027;47.420;9.310;2023-09-08T04:50:45;18.48;;;13.45;;
82387;SDS011;72027;47.420;9.310;2023-09-08T04:53:14;19.77;;;12.98;;
82387;SDS011;72027;47.420;9.310;2023-09-08T04:55:42;15.50;;;12.40;;
82387;SDS011;72027;47.420;9.310;2023-09-08T04:58:10;12.82;;;11.43;;
82387;SDS011;72027;47.420;9.310;2023-09-08T05:00:39;13.45;;;12.05;;
82387;SDS011;72027;47.420;9.310;2023-09-08T05:03:07;11.30;;;10.10;;
82387;SDS011;72027;47.420;9.310;2023-09-08T05:05:35;13.55;;;11.00;;
82387;SDS011;72027;47.420;9.310;2023-09-08T05:08:03;12.57;;;10.43;;
82387;SDS011;72027;47.420;9.310;2023-09-08T05:10:33;12.32;;;10.75;;
82387;SDS011;72027;47.420;9.310;2023-09-08T05:13:01;13.40;;;11.27;;
82387;SDS011;72027;47.420;9.310;2023-09-08T05:15:32;17.23;;;12.30;;
82387;SDS011;72027;47.420;9.310;2023-09-08T05:18:01;14.30;;;11.55;;
82387;SDS011;72027;47.420;9.310;2023-09-08T05:20:29;15.35;;;11.98;;
82387;SDS011;72027;47.420;9.310;2023-09-08T05:22:59;14.40;;;11.70;;
82387;SDS011;72027;47.420;9.310;2023-09-08T05:25:26;12.77;;;11.48;;
82387;SDS011;72027;47.420;9.310;2023-09-08T05:27:56;16.65;;;11.93;;
82387;SDS011;72027;47.420;9.310;2023-09-08T05:30:23;16.27;;;13.63;;
82387;SDS011;72027;47.420;9.310;2023-09-08T05:32:52;21.15;;;14.18;;
82387;SDS011;72027;47.420;9.310;2023-09-08T05:35:20;12.50;;;10.85;;
82387;SDS011;72027;47.420;9.310;2023-09-08T05:37:48;16.58;;;11.65;;
82387;SDS011;72027;47.420;9.310;2023-09-08T05:40:16;16.40;;;12.77;;
82387;SDS011;72027;47.420;9.310;2023-09-08T05:42:45;13.93;;;11.48;;
82387;SDS011;72027;47.420;9.310;2023-09-08T05:45:14;12.70;;;11.02;;
82387;SDS011;72027;47.420;9.310;2023-09-08T05:47:42;16.35;;;11.80;;
82387;SDS011;72027;47.420;9.310;2023-09-08T05:50:10;14.38;;;11.98;;
82387;SDS011;72027;47.420;9.310;2023-09-08T05:52:38;12.82;;;10.38;;
82387;SDS011;72027;47.420;9.310;2023-09-08T05:55:06;13.38;;;10.63;;
82387;SDS011;72027;47.420;9.310;2023-09-08T05:57:34;14.18;;;10.88;;
82387;SDS011;72027;47.420;9.310;2023-09-08T06:00:02;14.65;;;11.60;;
82387;SDS011;72027;47.420;9.310;2023-09-08T06:02:39;12.80;;;11.57;;
82387;SDS011;72027;47.420;9.310;2023-09-08T06:05:11;15.48;;;12.65;;
82387;SDS011;72027;47.420;9.310;2023-09-08T06:07:40;17.42;;;12.60;;
82387;SDS011;72027;47.420;9.310;2023-09-08T06:10:16;15.65;;;13.05;;
82387;SDS011;72027;47.420;9.310;2023-09-08T06:12:45;14.35;;;11.82;;
82387;SDS011;72027;47.420;9.310;2023-09-08T06:15:13;13.48;;;11.55;;
82387;SDS011;72027;47.420;9.310;2023-09-08T06:17:42;14.43;;;11.10;;
82387;SDS011;72027;47.420;9.310;2023-09-08T06:20:10;12.15;;;10.82;;
82387;SDS011;72027;47.420;9.310;2023-09-08T06:22:39;13.32;;;11.88;;
82387;SDS011;72027;47.420;9.310;2023-09-08T06:25:08;16.83;;;12.50;;
82387;SDS011;72027;47.420;9.310;2023-09-08T06:27:37;14.88;;;12.65;;
82387;SDS011;72027;47.420;9.310;2023-09-08T06:30:06;11.75;;;10.55;;
82387;SDS011;72027;47.420;9.310;2023-09-08T06:32:34;13.60;;;11.30;;
82387;SDS011;72027;47.420;9.310;2023-09-08T06:35:04;14.25;;;10.50;;
82387;SDS011;72027;47.420;9.310;2023-09-08T06:37:34;16.52;;;13.13;;
82387;SDS011;72027;47.420;9.310;2023-09-08T06:40:03;14.30;;;11.18;;
82387;SDS011;72027;47.420;9.310;2023-09-08T06:42:32;14.00;;;11.52;;
82387;SDS011;72027;47.420;9.310;2023-09-08T06:45:10;14.82;;;11.27;;
82387;SDS011;72027;47.420;9.310;2023-09-08T06:47:38;12.02;;;10.65;;
82387;SDS011;72027;47.420;9.310;2023-09-08T06:50:07;18.20;;;11.82;;
82387;SDS011;72027;47.420;9.310;2023-09-08T06:52:36;14.43;;;10.93;;
82387;SDS011;72027;47.420;9.310;2023-09-08T06:55:04;13.20;;;11.65;;
82387;SDS011;72027;47.420;9.310;2023-09-08T06:57:32;13.60;;;10.88;;
82387;SDS011;72027;47.420;9.310;2023-09-08T07:00:03;13.73;;;10.63;;
82387;SDS011;72027;47.420;9.310;2023-09-08T07:02:34;11.98;;;10.63;;
82387;SDS011;72027;47.420;9.310;2023-09-08T07:05:03;15.52;;;10.70;;
82387;SDS011;72027;47.420;9.310;2023-09-08T07:07:36;14.80;;;10.98;;
82387;SDS011;72027;47.420;9.310;2023-09-08T07:10:04;17.05;;;12.10;;
82387;SDS011;72027;47.420;9.310;2023-09-08T07:12:39;21.17;;;11.95;;
82387;SDS011;72027;47.420;9.310;2023-09-08T07:15:09;13.50;;;10.85;;
82387;SDS011;72027;47.420;9.310;2023-09-08T07:17:37;13.27;;;10.98;;
82387;SDS011;72027;47.420;9.310;2023-09-08T07:20:05;15.52;;;11.50;;
82387;SDS011;72027;47.420;9.310;2023-09-08T07:22:35;18.50;;;11.60;;
82387;SDS011;72027;47.420;9.310;2023-09-08T07:25:03;15.48;;;11.50;;
82387;SDS011;72027;47.420;9.310;2023-09-08T07:27:32;13.60;;;11.43;;
82387;SDS011;72027;47.420;9.310;2023-09-08T07:30:00;12.70;;;10.82;;
82387;SDS011;72027;47.420;9.310;2023-09-08T07:32:28;14.50;;;11.73;;
82387;SDS011;72027;47.420;9.310;2023-09-08T07:34:56;14.60;;;11.43;;
82387;SDS011;72027;47.420;9.310;2023-09-08T07:37:24;14.50;;;11.48;;
82387;SDS011;72027;47.420;9.310;2023-09-08T07:39:54;14.80;;;10.90;;
82387;SDS011;72027;47.420;9.310;2023-09-08T07:42:22;16.10;;;10.75;;
82387;SDS011;72027;47.420;9.310;2023-09-08T07:44:50;19.35;;;10.38;;
82387;SDS011;72027;47.420;9.310;2023-09-08T07:47:18;13.55;;;10.30;;
82387;SDS011;72027;47.420;9.310;2023-09-08T07:49:46;13.93;;;9.77;;
82387;SDS011;72027;47.420;9.310;2023-09-08T07:52:14;15.63;;;10.38;;
82387;SDS011;72027;47.420;9.310;2023-09-08T07:54:42;14.55;;;10.50;;
82387;SDS011;72027;47.420;9.310;2023-09-08T07:57:11;16.75;;;10.07;;
82387;SDS011;72027;47.420;9.310;2023-09-08T07:59:39;11.77;;;10.27;;
82387;SDS011;72027;47.420;9.310;2023-09-08T08:02:07;15.93;;;9.95;;
82387;SDS011;72027;47.420;9.310;2023-09-08T08:04:35;14.13;;;9.77;;
82387;SDS011;72027;47.420;9.310;2023-09-08T08:07:02;16.50;;;10.50;;
82387;SDS011;72027;47.420;9.310;2023-09-08T08:09:30;14.15;;;10.02;;
82387;SDS011;72027;47.420;9.310;2023-09-08T08:11:58;10.90;;;9.27;;
82387;SDS011;72027;47.420;9.310;2023-09-08T08:14:28;14.88;;;10.52;;
82387;SDS011;72027;47.420;9.310;2023-09-08T08:16:55;10.48;;;9.13;;
82387;SDS011;72027;47.420;9.310;2023-09-08T08:19:23;11.10;;;9.23;;
82387;SDS011;72027;47.420;9.310;2023-09-08T08:21:52;13.80;;;9.57;;
82387;SDS011;72027;47.420;9.310;2023-09-08T08:24:23;14.15;;;9.20;;
82387;SDS011;72027;47.420;9.310;2023-09-08T08:26:51;12.00;;;9.48;;
82387;SDS011;72027;47.420;9.310;2023-09-08T08:29:19;11.25;;;8.70;;
82387;SDS011;72027;47.420;9.310;2023-09-08T08:31:48;12.05;;;8.82;;
82387;SDS011;72027;47.420;9.310;2023-09-08T08:34:16;14.18;;;8.45;;
82387;SDS011;72027;47.420;9.310;2023-09-08T08:36:43;14.27;;;8.80;;
82387;SDS011;72027;47.420;9.310;2023-09-08T08:39:11;10.48;;;8.25;;
82387;SDS011;72027;47.420;9.310;2023-09-08T08:41:40;10.82;;;8.63;;
82387;SDS011;72027;47.420;9.310;2023-09-08T08:44:08;9.98;;;8.60;;
82387;SDS011;72027;47.420;9.310;2023-09-08T08:46:36;11.35;;;7.75;;
82387;SDS011;72027;47.420;9.310;2023-09-08T08:49:06;12.23;;;7.95;;
82387;SDS011;72027;47.420;9.310;2023-09-08T08:51:34;9.95;;;8.77;;
82387;SDS011;72027;47.420;9.310;2023-09-08T08:54:03;14.60;;;8.93;;
82387;SDS011;72027;47.420;9.310;2023-09-08T08:56:35;9.95;;;8.02;;
82387;SDS011;72027;47.420;9.310;2023-09-08T08:59:03;12.98;;;8.93;;
82387;SDS011;72027;47.420;9.310;2023-09-08T09:01:32;12.93;;;8.68;;
82387;SDS011;72027;47.420;9.310;2023-09-08T09:04:00;8.05;;;7.28;;
82387;SDS011;72027;47.420;9.310;2023-09-08T09:06:33;10.98;;;8.63;;
82387;SDS011;72027;47.420;9.310;2023-09-08T09:09:01;13.40;;;7.43;;
82387;SDS011;72027;47.420;9.310;2023-09-08T09:11:30;10.93;;;7.80;;
82387;SDS011;72027;47.420;9.310;2023-09-08T09:13:58;9.82;;;8.43;;
82387;SDS011;72027;47.420;9.310;2023-09-08T09:16:26;11.07;;;7.95;;
82387;SDS011;72027;47.420;9.310;2023-09-08T09:18:55;10.65;;;8.43;;
82387;SDS011;72027;47.420;9.310;2023-09-08T09:21:23;9.23;;;6.90;;
82387;SDS011;72027;47.420;9.310;2023-09-08T09:23:53;10.38;;;8.38;;
82387;SDS011;72027;47.420;9.310;2023-09-08T09:26:23;11.32;;;8.45;;
82387;SDS011;72027;47.420;9.310;2023-09-08T09:28:52;8.05;;;6.82;;
82387;SDS011;72027;47.420;9.310;2023-09-08T09:31:22;11.45;;;8.00;;
82387;SDS011;72027;47.420;9.310;2023-09-08T09:34:01;14.25;;;7.93;;
82387;SDS011;72027;47.420;9.310;2023-09-08T09:36:31;8.70;;;7.53;;
82387;SDS011;72027;47.420;9.310;2023-09-08T09:39:00;11.43;;;7.75;;
82387;SDS011;72027;47.420;9.310;2023-09-08T09:41:29;10.07;;;7.72;;
82387;SDS011;72027;47.420;9.310;2023-09-08T09:43:57;11.93;;;8.02;;
82387;SDS011;72027;47.420;9.310;2023-09-08T09:46:27;12.93;;;9.07;;
82387;SDS011;72027;47.420;9.310;2023-09-08T09:48:55;9.25;;;7.20;;
82387;SDS011;72027;47.420;9.310;2023-09-08T09:51:24;8.57;;;7.20;;
82387;SDS011;72027;47.420;9.310;2023-09-08T09:53:51;8.98;;;7.90;;
82387;SDS011;72027;47.420;9.310;2023-09-08T09:56:23;11.88;;;8.02;;
82387;SDS011;72027;47.420;9.310;2023-09-08T09:58:52;8.93;;;7.13;;
82387;SDS011;72027;47.420;9.310;2023-09-08T10:01:21;11.20;;;7.13;;
82387;SDS011;72027;47.420;9.310;2023-09-08T10:03:52;13.23;;;8.25;;
82387;SDS011;72027;47.420;9.310;2023-09-08T10:06:21;12.75;;;7.93;;
82387;SDS011;72027;47.420;9.310;2023-09-08T10:08:50;12.20;;;7.70;;
82387;SDS011;72027;47.420;9.310;2023-09-08T10:11:20;13.13;;;7.40;;
82387;SDS011;72027;47.420;9.310;2023-09-08T10:13:50;12.25;;;7.43;;
82387;SDS011;72027;47.420;9.310;2023-09-08T10:16:21;8.32;;;6.65;;
82387;SDS011;72027;47.420;9.310;2023-09-08T10:18:51;7.93;;;7.05;;
82387;SDS011;72027;47.420;9.310;2023-09-08T10:21:20;11.93;;;7.55;;
82387;SDS011;72027;47.420;9.310;2023-09-08T10:23:52;6.80;;;5.60;;
82387;SDS011;72027;47.420;9.310;2023-09-08T10:26:26;10.02;;;5.90;;
82387;SDS011;72027;47.420;9.310;2023-09-08T10:28:55;7.13;;;5.53;;
82387;SDS011;72027;47.420;9.310;2023-09-08T10:31:23;6.40;;;5.28;;
82387;SDS011;72027;47.420;9.310;2023-09-08T10:33:54;11.25;;;5.93;;
82387;SDS011;72027;47.420;9.310;2023-09-08T10:36:23;7.32;;;5.53;;
82387;SDS011;72027;47.420;9.310;2023-09-08T10:38:51;7.70;;;6.25;;
82387;SDS011;72027;47.420;9.310;2023-09-08T10:41:28;5.38;;;4.43;;
82387;SDS011;72027;47.420;9.310;2023-09-08T10:44:01;6.45;;;4.70;;
82387;SDS011;72027;47.420;9.310;2023-09-08T10:46:31;7.80;;;5.75;;
82387;SDS011;72027;47.420;9.310;2023-09-08T10:49:00;6.50;;;5.45;;
82387;SDS011;72027;47.420;9.310;2023-09-08T10:51:29;6.15;;;4.93;;
82387;SDS011;72027;47.420;9.310;2023-09-08T10:53:57;5.35;;;4.85;;
82387;SDS011;72027;47.420;9.310;2023-09-08T10:56:46;7.20;;;5.88;;
82387;SDS011;72027;47.420;9.310;2023-09-08T10:59:16;9.05;;;6.68;;
82387;SDS011;72027;47.420;9.310;2023-09-08T11:01:45;7.88;;;6.10;;
82387;SDS011;72027;47.420;9.310;2023-09-08T11:04:15;10.85;;;6.40;;
82387;SDS011;72027;47.420;9.310;2023-09-08T11:06:45;8.63;;;5.47;;
82387;SDS011;72027;47.420;9.310;2023-09-08T11:09:13;9.05;;;5.63;;
82387;SDS011;72027;47.420;9.310;2023-09-08T11:11:42;8.98;;;5.45;;
82387;SDS011;72027;47.420;9.310;2023-09-08T11:14:10;8.80;;;5.63;;
82387;SDS011;72027;47.420;9.310;2023-09-08T11:16:37;8.38;;;5.28;;
82387;SDS011;72027;47.420;9.310;2023-09-08T11:19:06;5.00;;;4.50;;
82387;SDS011;72027;47.420;9.310;2023-09-08T11:21:35;5.28;;;4.72;;
82387;SDS011;72027;47.420;9.310;2023-09-08T11:24:06;6.13;;;5.53;;
82387;SDS011;72027;47.420;9.310;2023-09-08T11:26:35;7.60;;;4.97;;
82387;SDS011;72027;47.420;9.310;2023-09-08T11:29:06;7.22;;;5.13;;
82387;SDS011;72027;47.420;9.310;2023-09-08T11:31:33;5.60;;;4.20;;
82387;SDS011;72027;47.420;9.310;2023-09-08T11:34:03;7.03;;;5.30;;
82387;SDS011;72027;47.420;9.310;2023-09-08T11:36:31;5.68;;;4.68;;
82387;SDS011;72027;47.420;9.310;2023-09-08T11:38:59;5.55;;;4.70;;
82387;SDS011;72027;47.420;9.310;2023-09-08T11:41:27;5.25;;;4.75;;
82387;SDS011;72027;47.420;9.310;2023-09-08T11:43:55;7.90;;;5.78;;
82387;SDS011;72027;47.420;9.310;2023-09-08T11:46:24;4.88;;;4.45;;
82387;SDS011;72027;47.420;9.310;2023-09-08T11:48:53;7.22;;;5.03;;
82387;SDS011;72027;47.420;9.310;2023-09-08T11:51:22;6.07;;;5.10;;
82387;SDS011;72027;47.420;9.310;2023-09-08T11:53:50;5.50;;;4.93;;
82387;SDS011;72027;47.420;9.310;2023-09-08T11:56:18;5.63;;;4.93;;
82387;SDS011;72027;47.420;9.310;2023-09-08T11:58:46;6.43;;;5.53;;
82387;SDS011;72027;47.420;9.310;2023-09-08T12:01:15;5.97;;;5.38;;
82387;SDS011;72027;47.420;9.310;2023-09-08T12:03:54;5.88;;;5.28;;
82387;SDS011;72027;47.420;9.310;2023-09-08T12:06:24;6.10;;;5.50;;
82387;SDS011;72027;47.420;9.310;2023-09-08T12:08:54;6.82;;;5.97;;
82387;SDS011;72027;47.420;9.310;2023-09-08T12:11:23;6.25;;;4.90;;
82387;SDS011;72027;47.420;9.310;2023-09-08T12:13:50;7.20;;;6.07;;
82387;SDS011;72027;47.420;9.310;2023-09-08T12:16:27;7.40;;;5.78;;
82387;SDS011;72027;47.420;9.310;2023-09-08T12:18:56;6.40;;;5.30;;
82387;SDS011;72027;47.420;9.310;2023-09-08T12:21:24;5.95;;;5.15;;
82387;SDS011;72027;47.420;9.310;2023-09-08T12:23:53;5.53;;;5.03;;
82387;SDS011;72027;47.420;9.310;2023-09-08T12:26:21;7.45;;;5.60;;
82387;SDS011;72027;47.420;9.310;2023-09-08T12:28:52;6.68;;;5.50;;
82387;SDS011;72027;47.420;9.310;2023-09-08T12:31:20;7.32;;;5.25;;
82387;SDS011;72027;47.420;9.310;2023-09-08T12:33:48;8.73;;;6.90;;
82387;SDS011;72027;47.420;9.310;2023-09-08T12:36:18;7.22;;;6.07;;
82387;SDS011;72027;47.420;9.310;2023-09-08T12:38:47;7.57;;;6.88;;
82387;SDS011;72027;47.420;9.310;2023-09-08T12:41:15;7.10;;;6.18;;
82387;SDS011;72027;47.420;9.310;2023-09-08T12:43:43;6.60;;;5.90;;
82387;SDS011;72027;47.420;9.310;2023-09-08T12:46:12;7.50;;;6.20;;
82387;SDS011;72027;47.420;9.310;2023-09-08T12:48:40;7.85;;;5.97;;
82387;SDS011;72027;47.420;9.310;2023-09-08T12:51:07;7.15;;;6.20;;
82387;SDS011;72027;47.420;9.310;2023-09-08T12:53:37;7.80;;;6.22;;
82387;SDS011;72027;47.420;9.310;2023-09-08T12:56:04;6.80;;;6.13;;
82387;SDS011;72027;47.420;9.310;2023-09-08T12:58:32;9.48;;;6.40;;
82387;SDS011;72027;47.420;9.310;2023-09-08T13:01:00;8.43;;;6.53;;
82387;SDS011;72027;47.420;9.310;2023-09-08T13:03:31;7.35;;;6.65;;
82387;SDS011;72027;47.420;9.310;2023-09-08T13:05:59;12.30;;;6.25;;
82387;SDS011;72027;47.420;9.310;2023-09-08T13:08:27;10.15;;;6.50;;
82387;SDS011;72027;47.420;9.310;2023-09-08T13:10:56;8.88;;;6.72;;
82387;SDS011;72027;47.420;9.310;2023-09-08T13:13:24;7.97;;;6.18;;
82387;SDS011;72027;47.420;9.310;2023-09-08T13:15:53;13.70;;;7.13;;
82387;SDS011;72027;47.420;9.310;2023-09-08T13:18:21;7.57;;;6.30;;
82387;SDS011;72027;47.420;9.310;2023-09-08T13:20:48;9.43;;;6.72;;
82387;SDS011;72027;47.420;9.310;2023-09-08T13:23:16;7.55;;;6.05;;
82387;SDS011;72027;47.420;9.310;2023-09-08T13:25:44;13.07;;;6.72;;
82387;SDS011;72027;47.420;9.310;2023-09-08T13:28:13;6.35;;;5.50;;
82387;SDS011;72027;47.420;9.310;2023-09-08T13:30:41;8.32;;;6.07;;
82387;SDS011;72027;47.420;9.310;2023-09-08T13:33:09;6.25;;;5.47;;
82387;SDS011;72027;47.420;9.310;2023-09-08T13:35:37;7.97;;;6.57;;
82387;SDS011;72027;47.420;9.310;2023-09-08T13:38:05;6.90;;;6.20;;
82387;SDS011;72027;47.420;9.310;2023-09-08T13:40:33;7.30;;;6.60;;
82387;SDS011;72027;47.420;9.310;2023-09-08T13:43:01;6.32;;;5.70;;
82387;SDS011;72027;47.420;9.310;2023-09-08T13:45:32;7.40;;;5.68;;
82387;SDS011;72027;47.420;9.310;2023-09-08T13:48:00;7.80;;;6.00;;
82387;SDS011;72027;47.420;9.310;2023-09-08T13:50:28;10.35;;;6.40;;
82387;SDS011;72027;47.420;9.310;2023-09-08T13:52:58;9.10;;;6.70;;
82387;SDS011;72027;47.420;9.310;2023-09-08T13:55:26;10.55;;;6.95;;
82387;SDS011;72027;47.420;9.310;2023-09-08T13:57:57;6.22;;;5.70;;
82387;SDS011;72027;47.420;9.310;2023-09-08T14:00:27;6.65;;;5.95;;
82387;SDS011;72027;47.420;9.310;2023-09-08T14:02:58;6.32;;;5.70;;
82387;SDS011;72027;47.420;9.310;2023-09-08T14:05:32;7.22;;;6.47;;
82387;SDS011;72027;47.420;9.310;2023-09-08T14:08:03;8.85;;;6.20;;
82387;SDS011;72027;47.420;9.310;2023-09-08T14:10:40;6.22;;;5.60;;
82387;SDS011;72027;47.420;9.310;2023-09-08T14:13:17;7.45;;;6.00;;
82387;SDS011;72027;47.420;9.310;2023-09-08T14:15:45;12.52;;;6.10;;
82387;SDS011;72027;47.420;9.310;2023-09-08T14:18:14;7.13;;;6.03;;
82387;SDS011;72027;47.420;9.310;2023-09-08T14:20:42;6.43;;;5.68;;
82387;SDS011;72027;47.420;9.310;2023-09-08T14:23:10;6.80;;;6.15;;
82387;SDS011;72027;47.420;9.310;2023-09-08T14:25:38;5.88;;;5.28;;
82387;SDS011;72027;47.420;9.310;2023-09-08T14:28:06;7.45;;;5.95;;
82387;SDS011;72027;47.420;9.310;2023-09-08T14:30:35;10.48;;;6.05;;
82387;SDS011;72027;47.420;9.310;2023-09-08T14:33:05;8.52;;;5.53;;
82387;SDS011;72027;47.420;9.310;2023-09-08T14:35:42;8.43;;;5.85;;
82387;SDS011;72027;47.420;9.310;2023-09-08T14:38:10;8.40;;;6.18;;
82387;SDS011;72027;47.420;9.310;2023-09-08T14:40:38;9.70;;;5.85;;
82387;SDS011;72027;47.420;9.310;2023-09-08T14:43:06;9.18;;;5.72;;
82387;SDS011;72027;47.420;9.310;2023-09-08T14:45:33;6.32;;;5.63;;